sensor_id;sensor_type;location;lat;lon;timestamp;P1;durP1;ratioP1;P2;durP2;ratioP2
23338;SDS011;11841;49.368;20.962;2023-07-22T00:01:38;7.28;;;3.40;;
23338;SDS011;11841;49.368;20.962;2023-07-22T00:04:25;7.57;;;3.67;;
23338;SDS011;11841;49.368;20.962;2023-07-22T00:07:11;5.55;;;3.85;;
23338;SDS011;11841;49.368;20.962;2023-07-22T00:09:57;15.35;;;4.00;;
23338;SDS011;11841;49.368;20.962;2023-07-22T00:12:42;8.75;;;3.85;;
23338;SDS011;11841;49.368;20.962;2023-07-22T00:15:28;4.80;;;3.78;;
23338;SDS011;11841;49.368;20.962;2023-07-22T00:18:13;6.78;;;3.90;;
23338;SDS011;11841;49.368;20.962;2023-07-22T00:20:58;6.60;;;3.50;;
23338;SDS011;11841;49.368;20.962;2023-07-22T00:23:44;4.40;;;3.13;;
23338;SDS011;11841;49.368;20.962;2023-07-22T00:26:31;9.38;;;3.65;;
23338;SDS011;11841;49.368;20.962;2023-07-22T00:29:16;8.25;;;3.85;;
23338;SDS011;11841;49.368;20.962;2023-07-22T00:32:02;8.68;;;3.03;;
23338;SDS011;11841;49.368;20.962;2023-07-22T00:35:06;9.15;;;4.90;;
23338;SDS011;11841;49.368;20.962;2023-07-22T00:37:52;4.80;;;3.20;;
23338;SDS011;11841;49.368;20.962;2023-07-22T00:40:38;5.53;;;2.92;;
23338;SDS011;11841;49.368;20.962;2023-07-22T00:43:23;5.45;;;2.50;;
23338;SDS011;11841;49.368;20.962;2023-07-22T00:46:10;3.47;;;3.00;;
23338;SDS011;11841;49.368;20.962;2023-07-22T00:48:56;7.88;;;2.70;;
23338;SDS011;11841;49.368;20.962;2023-07-22T00:51:41;8.23;;;3.42;;
23338;SDS011;11841;49.368;20.962;2023-07-22T00:54:26;11.50;;;4.05;;
23338;SDS011;11841;49.368;20.962;2023-07-22T00:57:12;8.77;;;3.47;;
23338;SDS011;11841;49.368;20.962;2023-07-22T00:59:57;5.10;;;3.83;;
23338;SDS011;11841;49.368;20.962;2023-07-22T01:02:42;5.68;;;3.30;;
23338;SDS011;11841;49.368;20.962;2023-07-22T01:05:28;4.10;;;3.30;;
23338;SDS011;11841;49.368;20.962;2023-07-22T01:08:16;4.75;;;3.38;;
23338;SDS011;11841;49.368;20.962;2023-07-22T01:11:01;6.65;;;3.83;;
23338;SDS011;11841;49.368;20.962;2023-07-22T01:13:46;6.05;;;3.80;;
23338;SDS011;11841;49.368;20.962;2023-07-22T01:16:32;8.88;;;3.83;;
23338;SDS011;11841;49.368;20.962;2023-07-22T01:19:17;6.35;;;3.80;;
23338;SDS011;11841;49.368;20.962;2023-07-22T01:22:04;4.53;;;4.03;;
23338;SDS011;11841;49.368;20.962;2023-07-22T01:24:52;7.75;;;3.80;;
23338;SDS011;11841;49.368;20.962;2023-07-22T01:27:38;6.97;;;3.95;;
23338;SDS011;11841;49.368;20.962;2023-07-22T01:30:24;8.70;;;3.80;;
23338;SDS011;11841;49.368;20.962;2023-07-22T01:33:10;9.00;;;3.65;;
23338;SDS011;11841;49.368;20.962;2023-07-22T01:35:55;7.85;;;4.53;;
23338;SDS011;11841;49.368;20.962;2023-07-22T01:38:41;8.23;;;4.05;;
23338;SDS011;11841;49.368;20.962;2023-07-22T01:41:26;5.13;;;3.95;;
23338;SDS011;11841;49.368;20.962;2023-07-22T01:44:12;8.07;;;3.72;;
23338;SDS011;11841;49.368;20.962;2023-07-22T01:46:57;9.45;;;4.55;;
23338;SDS011;11841;49.368;20.962;2023-07-22T01:49:43;5.28;;;3.97;;
23338;SDS011;11841;49.368;20.962;2023-07-22T01:52:29;7.88;;;4.47;;
23338;SDS011;11841;49.368;20.962;2023-07-22T01:55:14;4.38;;;3.50;;
23338;SDS011;11841;49.368;20.962;2023-07-22T01:58:00;6.03;;;3.42;;
23338;SDS011;11841;49.368;20.962;2023-07-22T02:00:52;9.98;;;3.92;;
23338;SDS011;11841;49.368;20.962;2023-07-22T02:03:38;10.57;;;4.10;;
23338;SDS011;11841;49.368;20.962;2023-07-22T02:06:23;5.60;;;3.35;;
23338;SDS011;11841;49.368;20.962;2023-07-22T02:09:09;7.15;;;3.63;;
23338;SDS011;11841;49.368;20.962;2023-07-22T02:11:54;6.15;;;3.58;;
23338;SDS011;11841;49.368;20.962;2023-07-22T02:14:40;4.30;;;3.55;;
23338;SDS011;11841;49.368;20.962;2023-07-22T02:17:25;7.38;;;4.30;;
23338;SDS011;11841;49.368;20.962;2023-07-22T02:20:10;7.43;;;3.45;;
23338;SDS011;11841;49.368;20.962;2023-07-22T02:22:57;6.43;;;3.83;;
23338;SDS011;11841;49.368;20.962;2023-07-22T02:25:43;6.70;;;4.13;;
23338;SDS011;11841;49.368;20.962;2023-07-22T02:28:29;8.27;;;3.22;;
23338;SDS011;11841;49.368;20.962;2023-07-22T02:31:14;5.32;;;3.00;;
23338;SDS011;11841;49.368;20.962;2023-07-22T02:33:59;6.38;;;3.00;;
23338;SDS011;11841;49.368;20.962;2023-07-22T02:36:45;4.55;;;3.13;;
23338;SDS011;11841;49.368;20.962;2023-07-22T02:39:30;10.88;;;3.53;;
23338;SDS011;11841;49.368;20.962;2023-07-22T02:42:16;10.65;;;3.90;;
23338;SDS011;11841;49.368;20.962;2023-07-22T02:45:01;5.78;;;4.15;;
23338;SDS011;11841;49.368;20.962;2023-07-22T02:47:49;5.90;;;3.30;;
23338;SDS011;11841;49.368;20.962;2023-07-22T02:50:34;7.78;;;3.63;;
23338;SDS011;11841;49.368;20.962;2023-07-22T02:53:20;4.65;;;3.30;;
23338;SDS011;11841;49.368;20.962;2023-07-22T02:56:05;5.72;;;4.10;;
23338;SDS011;11841;49.368;20.962;2023-07-22T02:58:56;3.97;;;3.40;;
23338;SDS011;11841;49.368;20.962;2023-07-22T03:01:41;8.35;;;3.42;;
23338;SDS011;11841;49.368;20.962;2023-07-22T03:04:27;8.80;;;3.78;;
23338;SDS011;11841;49.368;20.962;2023-07-22T03:07:12;7.20;;;3.42;;
23338;SDS011;11841;49.368;20.962;2023-07-22T03:09:57;4.65;;;3.55;;
23338;SDS011;11841;49.368;20.962;2023-07-22T03:12:43;7.45;;;3.67;;
23338;SDS011;11841;49.368;20.962;2023-07-22T03:15:29;4.88;;;3.80;;
23338;SDS011;11841;49.368;20.962;2023-07-22T03:18:15;8.60;;;3.58;;
23338;SDS011;11841;49.368;20.962;2023-07-22T03:21:00;4.20;;;3.13;;
23338;SDS011;11841;49.368;20.962;2023-07-22T03:23:45;7.00;;;3.20;;
23338;SDS011;11841;49.368;20.962;2023-07-22T03:26:31;6.03;;;3.40;;
23338;SDS011;11841;49.368;20.962;2023-07-22T03:29:16;4.45;;;3.38;;
23338;SDS011;11841;49.368;20.962;2023-07-22T03:32:02;3.47;;;2.92;;
23338;SDS011;11841;49.368;20.962;2023-07-22T03:34:47;5.38;;;3.40;;
23338;SDS011;11841;49.368;20.962;2023-07-22T03:37:32;4.00;;;3.33;;
23338;SDS011;11841;49.368;20.962;2023-07-22T03:40:18;6.88;;;3.65;;
23338;SDS011;11841;49.368;20.962;2023-07-22T03:45:52;7.25;;;3.65;;
23338;SDS011;11841;49.368;20.962;2023-07-22T03:48:38;10.35;;;3.28;;
23338;SDS011;11841;49.368;20.962;2023-07-22T03:51:23;4.70;;;3.20;;
23338;SDS011;11841;49.368;20.962;2023-07-22T03:54:09;5.43;;;3.50;;
23338;SDS011;11841;49.368;20.962;2023-07-22T03:56:54;7.15;;;3.83;;
23338;SDS011;11841;49.368;20.962;2023-07-22T03:59:39;6.50;;;3.80;;
23338;SDS011;11841;49.368;20.962;2023-07-22T04:02:25;7.35;;;4.20;;
23338;SDS011;11841;49.368;20.962;2023-07-22T04:05:12;5.28;;;3.72;;
23338;SDS011;11841;49.368;20.962;2023-07-22T04:07:57;10.60;;;4.07;;
23338;SDS011;11841;49.368;20.962;2023-07-22T04:10:50;6.03;;;4.05;;
23338;SDS011;11841;49.368;20.962;2023-07-22T04:13:36;5.60;;;4.13;;
23338;SDS011;11841;49.368;20.962;2023-07-22T04:16:21;6.13;;;4.03;;
23338;SDS011;11841;49.368;20.962;2023-07-22T04:19:07;5.55;;;4.22;;
23338;SDS011;11841;49.368;20.962;2023-07-22T04:21:52;9.77;;;4.40;;
23338;SDS011;11841;49.368;20.962;2023-07-22T04:24:38;5.13;;;3.95;;
23338;SDS011;11841;49.368;20.962;2023-07-22T04:27:25;6.53;;;4.13;;
23338;SDS011;11841;49.368;20.962;2023-07-22T04:30:11;6.88;;;4.20;;
23338;SDS011;11841;49.368;20.962;2023-07-22T04:32:57;10.93;;;6.68;;
23338;SDS011;11841;49.368;20.962;2023-07-22T04:35:45;10.45;;;4.95;;
23338;SDS011;11841;49.368;20.962;2023-07-22T04:38:30;9.40;;;5.38;;
23338;SDS011;11841;49.368;20.962;2023-07-22T04:41:16;8.10;;;4.90;;
23338;SDS011;11841;49.368;20.962;2023-07-22T04:44:01;7.65;;;5.47;;
23338;SDS011;11841;49.368;20.962;2023-07-22T04:46:47;8.23;;;4.50;;
23338;SDS011;11841;49.368;20.962;2023-07-22T04:49:32;7.80;;;4.75;;
23338;SDS011;11841;49.368;20.962;2023-07-22T04:52:18;9.25;;;5.30;;
23338;SDS011;11841;49.368;20.962;2023-07-22T04:55:03;6.93;;;4.97;;
23338;SDS011;11841;49.368;20.962;2023-07-22T04:57:54;7.13;;;5.20;;
23338;SDS011;11841;49.368;20.962;2023-07-22T05:00:39;7.57;;;4.75;;
23338;SDS011;11841;49.368;20.962;2023-07-22T05:03:25;8.23;;;5.07;;
23338;SDS011;11841;49.368;20.962;2023-07-22T05:06:12;9.70;;;5.45;;
23338;SDS011;11841;49.368;20.962;2023-07-22T05:08:57;8.23;;;5.13;;
23338;SDS011;11841;49.368;20.962;2023-07-22T05:11:42;5.60;;;4.80;;
23338;SDS011;11841;49.368;20.962;2023-07-22T05:14:27;6.93;;;5.15;;
23338;SDS011;11841;49.368;20.962;2023-07-22T05:17:13;6.28;;;4.45;;
23338;SDS011;11841;49.368;20.962;2023-07-22T05:19:58;9.85;;;5.00;;
23338;SDS011;11841;49.368;20.962;2023-07-22T05:22:44;8.75;;;5.82;;
23338;SDS011;11841;49.368;20.962;2023-07-22T05:25:29;9.27;;;5.05;;
23338;SDS011;11841;49.368;20.962;2023-07-22T05:28:14;8.35;;;4.22;;
23338;SDS011;11841;49.368;20.962;2023-07-22T05:31:00;7.70;;;5.07;;
23338;SDS011;11841;49.368;20.962;2023-07-22T05:33:46;7.00;;;4.78;;
23338;SDS011;11841;49.368;20.962;2023-07-22T05:36:32;8.13;;;5.38;;
23338;SDS011;11841;49.368;20.962;2023-07-22T05:39:17;8.43;;;5.20;;
23338;SDS011;11841;49.368;20.962;2023-07-22T05:42:03;6.22;;;4.38;;
23338;SDS011;11841;49.368;20.962;2023-07-22T05:44:50;5.35;;;4.38;;
23338;SDS011;11841;49.368;20.962;2023-07-22T05:47:35;6.25;;;4.63;;
23338;SDS011;11841;49.368;20.962;2023-07-22T05:50:20;4.13;;;3.17;;
23338;SDS011;11841;49.368;20.962;2023-07-22T05:53:05;7.35;;;3.30;;
23338;SDS011;11841;49.368;20.962;2023-07-22T05:55:51;8.18;;;3.10;;
23338;SDS011;11841;49.368;20.962;2023-07-22T05:58:36;2.50;;;2.28;;
23338;SDS011;11841;49.368;20.962;2023-07-22T06:01:23;2.97;;;2.65;;
23338;SDS011;11841;49.368;20.962;2023-07-22T06:04:09;5.90;;;2.20;;
23338;SDS011;11841;49.368;20.962;2023-07-22T06:06:55;3.88;;;2.65;;
23338;SDS011;11841;49.368;20.962;2023-07-22T06:09:40;2.95;;;2.63;;
23338;SDS011;11841;49.368;20.962;2023-07-22T06:12:26;3.58;;;2.50;;
23338;SDS011;11841;49.368;20.962;2023-07-22T06:15:11;2.75;;;2.33;;
23338;SDS011;11841;49.368;20.962;2023-07-22T06:17:56;2.85;;;2.25;;
23338;SDS011;11841;49.368;20.962;2023-07-22T06:20:42;5.55;;;2.55;;
23338;SDS011;11841;49.368;20.962;2023-07-22T06:23:27;3.10;;;2.42;;
23338;SDS011;11841;49.368;20.962;2023-07-22T06:26:13;4.32;;;2.17;;
23338;SDS011;11841;49.368;20.962;2023-07-22T06:28:58;2.88;;;2.53;;
23338;SDS011;11841;49.368;20.962;2023-07-22T06:31:43;2.45;;;2.25;;
23338;SDS011;11841;49.368;20.962;2023-07-22T06:34:29;3.58;;;2.60;;
23338;SDS011;11841;49.368;20.962;2023-07-22T06:37:14;3.67;;;2.70;;
23338;SDS011;11841;49.368;20.962;2023-07-22T06:40:00;3.83;;;2.70;;
23338;SDS011;11841;49.368;20.962;2023-07-22T06:42:45;3.88;;;3.15;;
23338;SDS011;11841;49.368;20.962;2023-07-22T06:45:31;6.72;;;2.22;;
23338;SDS011;11841;49.368;20.962;2023-07-22T06:48:17;2.92;;;2.42;;
23338;SDS011;11841;49.368;20.962;2023-07-22T06:51:03;4.07;;;2.42;;
23338;SDS011;11841;49.368;20.962;2023-07-22T06:53:48;2.95;;;2.40;;
23338;SDS011;11841;49.368;20.962;2023-07-22T06:56:34;3.33;;;2.47;;
23338;SDS011;11841;49.368;20.962;2023-07-22T06:59:19;2.97;;;2.08;;
23338;SDS011;11841;49.368;20.962;2023-07-22T07:02:05;3.05;;;2.50;;
23338;SDS011;11841;49.368;20.962;2023-07-22T07:04:50;3.65;;;2.58;;
23338;SDS011;11841;49.368;20.962;2023-07-22T07:07:36;7.15;;;2.08;;
23338;SDS011;11841;49.368;20.962;2023-07-22T07:10:21;2.50;;;2.30;;
23338;SDS011;11841;49.368;20.962;2023-07-22T07:13:06;4.90;;;2.38;;
23338;SDS011;11841;49.368;20.962;2023-07-22T07:15:52;4.07;;;2.40;;
23338;SDS011;11841;49.368;20.962;2023-07-22T07:18:38;4.32;;;2.78;;
23338;SDS011;11841;49.368;20.962;2023-07-22T07:21:23;3.20;;;2.50;;
23338;SDS011;11841;49.368;20.962;2023-07-22T07:24:09;3.28;;;2.63;;
23338;SDS011;11841;49.368;20.962;2023-07-22T07:26:54;3.85;;;2.88;;
23338;SDS011;11841;49.368;20.962;2023-07-22T07:29:40;6.30;;;2.42;;
23338;SDS011;11841;49.368;20.962;2023-07-22T07:32:38;7.03;;;2.57;;
23338;SDS011;11841;49.368;20.962;2023-07-22T07:35:23;4.45;;;2.53;;
23338;SDS011;11841;49.368;20.962;2023-07-22T07:38:09;7.10;;;2.88;;
23338;SDS011;11841;49.368;20.962;2023-07-22T07:40:58;5.15;;;3.13;;
23338;SDS011;11841;49.368;20.962;2023-07-22T07:43:45;4.70;;;2.83;;
23338;SDS011;11841;49.368;20.962;2023-07-22T07:46:30;6.30;;;3.05;;
23338;SDS011;11841;49.368;20.962;2023-07-22T07:49:17;2.78;;;2.47;;
23338;SDS011;11841;49.368;20.962;2023-07-22T07:52:02;3.42;;;2.55;;
23338;SDS011;11841;49.368;20.962;2023-07-22T07:54:48;9.70;;;3.22;;
23338;SDS011;11841;49.368;20.962;2023-07-22T07:57:33;6.68;;;3.08;;
23338;SDS011;11841;49.368;20.962;2023-07-22T08:00:19;3.10;;;2.65;;
23338;SDS011;11841;49.368;20.962;2023-07-22T08:03:05;4.15;;;2.97;;
23338;SDS011;11841;49.368;20.962;2023-07-22T08:05:51;4.10;;;2.97;;
23338;SDS011;11841;49.368;20.962;2023-07-22T08:08:37;6.97;;;2.88;;
23338;SDS011;11841;49.368;20.962;2023-07-22T08:11:23;4.63;;;2.97;;
23338;SDS011;11841;49.368;20.962;2023-07-22T08:14:08;6.65;;;3.30;;
23338;SDS011;11841;49.368;20.962;2023-07-22T08:16:55;5.68;;;3.10;;
23338;SDS011;11841;49.368;20.962;2023-07-22T08:19:40;11.93;;;3.08;;
23338;SDS011;11841;49.368;20.962;2023-07-22T08:22:25;7.15;;;3.20;;
23338;SDS011;11841;49.368;20.962;2023-07-22T08:25:11;3.08;;;2.47;;
23338;SDS011;11841;49.368;20.962;2023-07-22T08:27:57;4.35;;;2.72;;
23338;SDS011;11841;49.368;20.962;2023-07-22T08:30:42;3.90;;;2.60;;
23338;SDS011;11841;49.368;20.962;2023-07-22T08:33:29;3.70;;;2.90;;
23338;SDS011;11841;49.368;20.962;2023-07-22T08:36:26;4.28;;;3.10;;
23338;SDS011;11841;49.368;20.962;2023-07-22T08:39:11;4.13;;;2.90;;
23338;SDS011;11841;49.368;20.962;2023-07-22T08:41:57;6.65;;;3.00;;
23338;SDS011;11841;49.368;20.962;2023-07-22T08:44:48;5.65;;;2.78;;
23338;SDS011;11841;49.368;20.962;2023-07-22T08:47:45;4.15;;;2.80;;
23338;SDS011;11841;49.368;20.962;2023-07-22T08:50:31;2.75;;;2.38;;
23338;SDS011;11841;49.368;20.962;2023-07-22T08:53:24;3.15;;;2.67;;
23338;SDS011;11841;49.368;20.962;2023-07-22T08:56:10;3.47;;;2.53;;
23338;SDS011;11841;49.368;20.962;2023-07-22T08:58:56;3.92;;;2.42;;
23338;SDS011;11841;49.368;20.962;2023-07-22T09:01:42;6.15;;;2.60;;
23338;SDS011;11841;49.368;20.962;2023-07-22T09:04:28;3.67;;;2.55;;
23338;SDS011;11841;49.368;20.962;2023-07-22T09:07:14;5.20;;;2.78;;
23338;SDS011;11841;49.368;20.962;2023-07-22T09:10:00;5.20;;;2.55;;
23338;SDS011;11841;49.368;20.962;2023-07-22T09:12:47;3.88;;;3.00;;
23338;SDS011;11841;49.368;20.962;2023-07-22T09:15:34;3.22;;;2.92;;
23338;SDS011;11841;49.368;20.962;2023-07-22T09:21:06;5.68;;;3.05;;
23338;SDS011;11841;49.368;20.962;2023-07-22T09:23:51;3.67;;;2.85;;
23338;SDS011;11841;49.368;20.962;2023-07-22T09:26:37;5.60;;;2.90;;
23338;SDS011;11841;49.368;20.962;2023-07-22T09:29:34;6.07;;;2.85;;
23338;SDS011;11841;49.368;20.962;2023-07-22T09:32:34;6.32;;;2.90;;
23338;SDS011;11841;49.368;20.962;2023-07-22T09:35:21;3.47;;;2.50;;
23338;SDS011;11841;49.368;20.962;2023-07-22T09:38:07;4.03;;;3.00;;
23338;SDS011;11841;49.368;20.962;2023-07-22T09:40:52;5.05;;;2.53;;
23338;SDS011;11841;49.368;20.962;2023-07-22T09:43:38;5.45;;;2.70;;
23338;SDS011;11841;49.368;20.962;2023-07-22T09:46:30;4.82;;;2.92;;
23338;SDS011;11841;49.368;20.962;2023-07-22T09:49:18;2.60;;;2.40;;
23338;SDS011;11841;49.368;20.962;2023-07-22T09:52:08;4.03;;;2.25;;
23338;SDS011;11841;49.368;20.962;2023-07-22T09:55:00;3.60;;;2.28;;
23338;SDS011;11841;49.368;20.962;2023-07-22T09:57:46;4.75;;;2.67;;
23338;SDS011;11841;49.368;20.962;2023-07-22T10:00:34;3.25;;;2.92;;
23338;SDS011;11841;49.368;20.962;2023-07-22T10:03:21;4.45;;;2.85;;
23338;SDS011;11841;49.368;20.962;2023-07-22T10:06:11;3.55;;;2.72;;
23338;SDS011;11841;49.368;20.962;2023-07-22T10:09:03;5.40;;;2.63;;
23338;SDS011;11841;49.368;20.962;2023-07-22T10:11:52;5.63;;;2.70;;
23338;SDS011;11841;49.368;20.962;2023-07-22T10:14:38;3.00;;;2.53;;
23338;SDS011;11841;49.368;20.962;2023-07-22T10:17:23;3.00;;;2.30;;
23338;SDS011;11841;49.368;20.962;2023-07-22T10:20:09;5.63;;;2.58;;
23338;SDS011;11841;49.368;20.962;2023-07-22T10:23:01;7.40;;;2.78;;
23338;SDS011;11841;49.368;20.962;2023-07-22T10:25:46;3.80;;;2.80;;
23338;SDS011;11841;49.368;20.962;2023-07-22T10:28:33;5.13;;;3.03;;
23338;SDS011;11841;49.368;20.962;2023-07-22T10:31:20;4.65;;;2.67;;
23338;SDS011;11841;49.368;20.962;2023-07-22T10:34:07;5.50;;;3.25;;
23338;SDS011;11841;49.368;20.962;2023-07-22T10:36:55;4.85;;;2.72;;
23338;SDS011;11841;49.368;20.962;2023-07-22T10:39:42;3.45;;;2.58;;
23338;SDS011;11841;49.368;20.962;2023-07-22T10:42:28;3.75;;;3.08;;
23338;SDS011;11841;49.368;20.962;2023-07-22T10:45:27;3.90;;;3.28;;
23338;SDS011;11841;49.368;20.962;2023-07-22T10:48:14;5.78;;;2.80;;
23338;SDS011;11841;49.368;20.962;2023-07-22T10:51:05;7.53;;;3.60;;
23338;SDS011;11841;49.368;20.962;2023-07-22T10:53:52;6.18;;;3.00;;
23338;SDS011;11841;49.368;20.962;2023-07-22T10:56:37;5.60;;;3.30;;
23338;SDS011;11841;49.368;20.962;2023-07-22T10:59:26;4.20;;;3.00;;
23338;SDS011;11841;49.368;20.962;2023-07-22T11:02:22;6.05;;;3.40;;
23338;SDS011;11841;49.368;20.962;2023-07-22T11:05:11;5.85;;;3.28;;
23338;SDS011;11841;49.368;20.962;2023-07-22T11:08:03;3.75;;;3.35;;
23338;SDS011;11841;49.368;20.962;2023-07-22T11:10:52;4.70;;;3.03;;
23338;SDS011;11841;49.368;20.962;2023-07-22T11:13:39;3.83;;;3.10;;
23338;SDS011;11841;49.368;20.962;2023-07-22T11:16:28;10.82;;;4.53;;
23338;SDS011;11841;49.368;20.962;2023-07-22T11:19:18;12.48;;;6.15;;
23338;SDS011;11841;49.368;20.962;2023-07-22T11:22:06;6.38;;;3.80;;
23338;SDS011;11841;49.368;20.962;2023-07-22T11:24:52;8.25;;;4.35;;
23338;SDS011;11841;49.368;20.962;2023-07-22T11:27:38;8.75;;;3.72;;
23338;SDS011;11841;49.368;20.962;2023-07-22T11:30:24;4.68;;;3.58;;
23338;SDS011;11841;49.368;20.962;2023-07-22T11:33:09;7.85;;;4.18;;
23338;SDS011;11841;49.368;20.962;2023-07-22T11:35:54;7.10;;;3.85;;
23338;SDS011;11841;49.368;20.962;2023-07-22T11:38:40;5.50;;;3.85;;
23338;SDS011;11841;49.368;20.962;2023-07-22T11:41:25;6.32;;;4.10;;
23338;SDS011;11841;49.368;20.962;2023-07-22T11:44:12;6.07;;;3.97;;
23338;SDS011;11841;49.368;20.962;2023-07-22T11:47:05;5.43;;;3.65;;
23338;SDS011;11841;49.368;20.962;2023-07-22T11:49:55;6.50;;;2.92;;
23338;SDS011;11841;49.368;20.962;2023-07-22T11:52:40;6.03;;;3.72;;
23338;SDS011;11841;49.368;20.962;2023-07-22T11:55:25;5.05;;;4.03;;
23338;SDS011;11841;49.368;20.962;2023-07-22T11:58:25;9.88;;;5.72;;
23338;SDS011;11841;49.368;20.962;2023-07-22T12:01:11;14.48;;;5.55;;
23338;SDS011;11841;49.368;20.962;2023-07-22T12:03:56;4.38;;;3.40;;
23338;SDS011;11841;49.368;20.962;2023-07-22T12:06:42;5.55;;;4.20;;
23338;SDS011;11841;49.368;20.962;2023-07-22T12:09:27;5.43;;;3.65;;
23338;SDS011;11841;49.368;20.962;2023-07-22T12:12:13;4.55;;;3.33;;
23338;SDS011;11841;49.368;20.962;2023-07-22T12:15:04;4.28;;;3.88;;
23338;SDS011;11841;49.368;20.962;2023-07-22T12:17:55;8.02;;;4.85;;
23338;SDS011;11841;49.368;20.962;2023-07-22T12:20:47;4.85;;;3.85;;
23338;SDS011;11841;49.368;20.962;2023-07-22T12:23:33;4.97;;;4.07;;
23338;SDS011;11841;49.368;20.962;2023-07-22T12:26:19;6.03;;;3.80;;
23338;SDS011;11841;49.368;20.962;2023-07-22T12:29:04;7.72;;;4.63;;
23338;SDS011;11841;49.368;20.962;2023-07-22T12:31:49;5.93;;;3.90;;
23338;SDS011;11841;49.368;20.962;2023-07-22T12:34:35;5.60;;;4.47;;
23338;SDS011;11841;49.368;20.962;2023-07-22T12:37:20;5.45;;;4.38;;
23338;SDS011;11841;49.368;20.962;2023-07-22T12:40:06;5.18;;;3.80;;
23338;SDS011;11841;49.368;20.962;2023-07-22T12:42:54;4.63;;;3.25;;
23338;SDS011;11841;49.368;20.962;2023-07-22T12:45:39;4.80;;;3.55;;
23338;SDS011;11841;49.368;20.962;2023-07-22T12:48:25;4.40;;;3.67;;
23338;SDS011;11841;49.368;20.962;2023-07-22T12:51:10;4.40;;;3.70;;
23338;SDS011;11841;49.368;20.962;2023-07-22T12:53:56;5.30;;;3.53;;
23338;SDS011;11841;49.368;20.962;2023-07-22T12:56:41;5.70;;;3.70;;
23338;SDS011;11841;49.368;20.962;2023-07-22T12:59:28;4.43;;;3.80;;
23338;SDS011;11841;49.368;20.962;2023-07-22T13:02:13;3.53;;;3.13;;
23338;SDS011;11841;49.368;20.962;2023-07-22T13:04:59;3.40;;;3.10;;
23338;SDS011;11841;49.368;20.962;2023-07-22T13:07:44;5.45;;;3.35;;
23338;SDS011;11841;49.368;20.962;2023-07-22T13:10:32;15.13;;;4.20;;
23338;SDS011;11841;49.368;20.962;2023-07-22T13:13:23;3.00;;;2.60;;
23338;SDS011;11841;49.368;20.962;2023-07-22T13:16:09;4.28;;;2.90;;
23338;SDS011;11841;49.368;20.962;2023-07-22T13:18:54;6.55;;;3.95;;
23338;SDS011;11841;49.368;20.962;2023-07-22T13:21:40;4.85;;;2.90;;
23338;SDS011;11841;49.368;20.962;2023-07-22T13:24:26;3.53;;;2.60;;
23338;SDS011;11841;49.368;20.962;2023-07-22T13:27:11;4.70;;;2.88;;
23338;SDS011;11841;49.368;20.962;2023-07-22T13:29:57;4.10;;;2.80;;
23338;SDS011;11841;49.368;20.962;2023-07-22T13:32:42;4.18;;;3.17;;
23338;SDS011;11841;49.368;20.962;2023-07-22T13:35:28;2.65;;;2.00;;
23338;SDS011;11841;49.368;20.962;2023-07-22T13:38:13;4.80;;;2.70;;
23338;SDS011;11841;49.368;20.962;2023-07-22T13:40:58;5.82;;;3.13;;
23338;SDS011;11841;49.368;20.962;2023-07-22T13:43:44;2.88;;;2.55;;
23338;SDS011;11841;49.368;20.962;2023-07-22T13:46:29;2.55;;;1.95;;
23338;SDS011;11841;49.368;20.962;2023-07-22T13:49:14;3.53;;;2.40;;
23338;SDS011;11841;49.368;20.962;2023-07-22T13:52:00;4.40;;;2.35;;
23338;SDS011;11841;49.368;20.962;2023-07-22T13:54:45;4.93;;;2.65;;
23338;SDS011;11841;49.368;20.962;2023-07-22T13:57:31;6.68;;;2.75;;
23338;SDS011;11841;49.368;20.962;2023-07-22T14:00:16;4.00;;;2.78;;
23338;SDS011;11841;49.368;20.962;2023-07-22T14:03:02;3.92;;;2.28;;
23338;SDS011;11841;49.368;20.962;2023-07-22T14:05:47;3.70;;;2.67;;
23338;SDS011;11841;49.368;20.962;2023-07-22T14:08:33;7.00;;;2.95;;
23338;SDS011;11841;49.368;20.962;2023-07-22T14:11:18;4.38;;;3.33;;
23338;SDS011;11841;49.368;20.962;2023-07-22T14:14:03;4.50;;;3.08;;
23338;SDS011;11841;49.368;20.962;2023-07-22T14:16:49;6.68;;;3.35;;
23338;SDS011;11841;49.368;20.962;2023-07-22T14:19:34;3.25;;;2.47;;
23338;SDS011;11841;49.368;20.962;2023-07-22T14:22:20;4.82;;;2.63;;
23338;SDS011;11841;49.368;20.962;2023-07-22T14:25:05;3.67;;;2.58;;
23338;SDS011;11841;49.368;20.962;2023-07-22T14:27:51;3.95;;;2.40;;
23338;SDS011;11841;49.368;20.962;2023-07-22T14:30:37;4.35;;;2.47;;
23338;SDS011;11841;49.368;20.962;2023-07-22T14:33:22;3.72;;;2.75;;
23338;SDS011;11841;49.368;20.962;2023-07-22T14:36:08;3.58;;;2.20;;
23338;SDS011;11841;49.368;20.962;2023-07-22T14:38:53;5.80;;;2.58;;
23338;SDS011;11841;49.368;20.962;2023-07-22T14:41:40;4.57;;;2.88;;
23338;SDS011;11841;49.368;20.962;2023-07-22T14:44:27;4.45;;;3.08;;
23338;SDS011;11841;49.368;20.962;2023-07-22T14:47:13;3.83;;;2.25;;
23338;SDS011;11841;49.368;20.962;2023-07-22T14:49:58;4.22;;;3.17;;
23338;SDS011;11841;49.368;20.962;2023-07-22T14:52:44;5.22;;;3.45;;
23338;SDS011;11841;49.368;20.962;2023-07-22T14:55:29;5.78;;;2.92;;
23338;SDS011;11841;49.368;20.962;2023-07-22T14:58:14;4.57;;;2.28;;
23338;SDS011;11841;49.368;20.962;2023-07-22T15:01:00;6.65;;;3.35;;
23338;SDS011;11841;49.368;20.962;2023-07-22T15:03:48;3.15;;;2.38;;
23338;SDS011;11841;49.368;20.962;2023-07-22T15:06:33;4.13;;;3.25;;
23338;SDS011;11841;49.368;20.962;2023-07-22T15:09:19;5.32;;;2.95;;
23338;SDS011;11841;49.368;20.962;2023-07-22T15:12:05;6.43;;;3.33;;
23338;SDS011;11841;49.368;20.962;2023-07-22T15:14:50;4.13;;;2.95;;
23338;SDS011;11841;49.368;20.962;2023-07-22T15:17:35;4.57;;;3.22;;
23338;SDS011;11841;49.368;20.962;2023-07-22T15:20:21;2.63;;;2.38;;
23338;SDS011;11841;49.368;20.962;2023-07-22T15:23:07;4.07;;;2.47;;
23338;SDS011;11841;49.368;20.962;2023-07-22T15:25:52;5.47;;;3.05;;
23338;SDS011;11841;49.368;20.962;2023-07-22T15:28:38;4.20;;;2.47;;
23338;SDS011;11841;49.368;20.962;2023-07-22T15:31:24;11.00;;;3.08;;
23338;SDS011;11841;49.368;20.962;2023-07-22T15:34:10;5.47;;;3.25;;
23338;SDS011;11841;49.368;20.962;2023-07-22T15:36:56;6.25;;;2.80;;
23338;SDS011;11841;49.368;20.962;2023-07-22T15:39:41;5.00;;;3.47;;
23338;SDS011;11841;49.368;20.962;2023-07-22T15:42:27;4.60;;;2.97;;
23338;SDS011;11841;49.368;20.962;2023-07-22T15:45:12;8.27;;;2.88;;
23338;SDS011;11841;49.368;20.962;2023-07-22T15:47:57;5.60;;;3.28;;
23338;SDS011;11841;49.368;20.962;2023-07-22T15:50:44;10.15;;;3.03;;
23338;SDS011;11841;49.368;20.962;2023-07-22T15:53:30;8.30;;;3.35;;
23338;SDS011;11841;49.368;20.962;2023-07-22T15:56:15;3.67;;;2.88;;
23338;SDS011;11841;49.368;20.962;2023-07-22T15:59:00;8.05;;;3.58;;
23338;SDS011;11841;49.368;20.962;2023-07-22T16:01:46;5.72;;;3.67;;
23338;SDS011;11841;49.368;20.962;2023-07-22T16:04:32;6.10;;;3.53;;
23338;SDS011;11841;49.368;20.962;2023-07-22T16:07:21;4.70;;;3.50;;
23338;SDS011;11841;49.368;20.962;2023-07-22T16:10:06;5.25;;;2.92;;
23338;SDS011;11841;49.368;20.962;2023-07-22T16:12:51;6.60;;;3.35;;
23338;SDS011;11841;49.368;20.962;2023-07-22T16:15:37;6.40;;;3.60;;
23338;SDS011;11841;49.368;20.962;2023-07-22T16:18:22;4.22;;;2.78;;
23338;SDS011;11841;49.368;20.962;2023-07-22T16:21:07;3.50;;;2.45;;
23338;SDS011;11841;49.368;20.962;2023-07-22T16:23:53;4.38;;;2.72;;
23338;SDS011;11841;49.368;20.962;2023-07-22T16:26:38;5.90;;;3.92;;
23338;SDS011;11841;49.368;20.962;2023-07-22T16:29:23;4.93;;;3.10;;
23338;SDS011;11841;49.368;20.962;2023-07-22T16:32:09;6.00;;;3.80;;